Time;durP1;ratioP1;P1;durP2;ratioP2;P2;SDS_P1;SDS_P2;PMS_P1;PMS_P2;Temp;Humidity;BMP_temperature;BMP_pressure;BME280_temperature;BME280_humidity;BME280_pressure;Samples;Min_cycle;Max_cycle;Signal;HPM_P1;HPM_P2
2023/09/26 00:00:18;;;;;;;5.65;0.90;;;19.60;99.90;;;;;;5033830;28;20036;-72
2023/09/26 00:02:45;;;;;;;8.27;1.40;;;19.50;99.90;;;;;;5033215;28;20136;-73
2023/09/26 00:05:12;;;;;;;4.05;1.00;;;19.60;99.90;;;;;;5033122;28;20072;-73
2023/09/26 00:07:38;;;;;;;4.72;1.00;;;19.60;99.90;;;;;;5030763;28;20025;-73
2023/09/26 00:10:06;;;;;;;3.33;1.00;;;19.60;99.90;;;;;;5033099;28;20029;-73
2023/09/26 00:12:33;;;;;;;5.30;1.00;;;19.60;99.90;;;;;;5033178;28;20036;-73
2023/09/26 00:15:00;;;;;;;3.28;1.35;;;19.70;99.90;;;;;;5033150;28;20029;-73
2023/09/26 00:17:27;;;;;;;5.97;1.35;;;19.70;99.90;;;;;;5032940;28;20025;-73
2023/09/26 00:19:53;;;;;;;5.10;1.40;;;19.60;99.90;;;;;;5032910;28;20132;-73
2023/09/26 00:22:20;;;;;;;3.95;1.20;;;19.50;99.90;;;;;;5033190;28;20033;-73
2023/09/26 00:24:46;;;;;;;4.40;1.33;;;19.60;99.90;;;;;;5032567;28;20508;-73
2023/09/26 00:27:13;;;;;;;5.40;1.10;;;19.60;99.90;;;;;;5032693;28;20105;-73
2023/09/26 00:29:40;;;;;;;9.70;1.83;;;19.70;99.90;;;;;;5033028;28;20041;-73
2023/09/26 00:32:06;;;;;;;;;;;19.60;99.90;;;;;;5033192;28;20060;-73
2023/09/26 00:34:32;;;;;;;6.88;1.30;;;19.60;99.90;;;;;;5032878;28;19905;-73
2023/09/26 00:36:58;;;;;;;4.82;0.95;;;19.60;99.90;;;;;;5032633;28;20029;-73
2023/09/26 00:39:25;;;;;;;4.88;1.83;;;19.40;99.90;;;;;;5032353;28;20033;-73
2023/09/26 00:41:51;;;;;;;6.35;1.20;;;19.30;99.90;;;;;;5032816;28;20394;-73
2023/09/26 00:44:17;;;;;;;4.57;0.95;;;19.30;99.90;;;;;;5032504;28;20142;-73
2023/09/26 00:46:43;;;;;;;7.00;1.00;;;19.30;99.90;;;;;;5032352;28;20458;-73
2023/09/26 00:49:10;;;;;;;6.43;1.17;;;19.30;99.90;;;;;;5032288;28;20037;-72
2023/09/26 00:51:38;;;;;;;5.13;1.25;;;19.30;99.90;;;;;;5032706;28;20026;-73
2023/09/26 00:54:05;;;;;;;4.43;1.13;;;19.30;99.90;;;;;;5030552;28;20427;-73
2023/09/26 00:56:31;;;;;;;4.28;1.00;;;19.30;99.90;;;;;;5030717;28;20031;-73
2023/09/26 00:59:00;;;;;;;4.03;1.00;;;19.30;99.90;;;;;;5032310;28;20037;-73
2023/09/26 01:01:29;;;;;;;9.15;1.10;;;19.40;99.90;;;;;;5031861;28;20048;-73
2023/09/26 01:03:57;;;;;;;3.88;1.05;;;19.30;99.90;;;;;;5032149;28;20087;-73
2023/09/26 01:06:23;;;;;;;3.20;1.00;;;19.30;99.90;;;;;;5031943;28;20017;-73
2023/09/26 01:08:49;;;;;;;6.07;1.20;;;19.40;99.90;;;;;;5032124;28;20099;-73
2023/09/26 01:11:16;;;;;;;5.15;1.00;;;19.30;99.90;;;;;;5032180;28;20060;-74
2023/09/26 01:13:42;;;;;;;5.65;0.93;;;19.40;99.90;;;;;;5032112;28;20470;-73
2023/09/26 01:16:19;;;;;;;6.35;1.20;;;19.20;99.90;;;;;;5031802;28;20041;-73
2023/09/26 01:18:46;;;;;;;5.93;1.10;;;19.30;99.90;;;;;;5030411;28;20503;-74
2023/09/26 01:21:14;;;;;;;6.55;1.30;;;19.30;99.90;;;;;;5031619;28;20394;-73
2023/09/26 01:23:41;;;;;;;4.10;1.30;;;19.30;99.90;;;;;;5032116;28;20597;-73
2023/09/26 01:26:08;;;;;;;5.50;1.30;;;19.40;99.90;;;;;;5031623;28;20079;-73
2023/09/26 01:28:34;;;;;;;;;;;19.40;99.90;;;;;;5032358;28;20044;-73
2023/09/26 01:31:01;;;;;;;6.05;1.35;;;19.40;99.90;;;;;;5031589;28;20089;-73
2023/09/26 01:33:27;;;;;;;12.15;1.40;;;19.50;99.90;;;;;;5031672;28;20057;-73
2023/09/26 01:35:53;;;;;;;4.32;1.38;;;19.50;99.90;;;;;;5031819;28;20032;-73
2023/09/26 01:38:21;;;;;;;6.35;1.40;;;19.50;99.90;;;;;;5031953;28;20023;-73
2023/09/26 01:40:48;;;;;;;6.80;1.48;;;19.50;99.90;;;;;;5031534;28;20033;-73
2023/09/26 01:43:14;;;;;;;7.68;1.33;;;19.50;99.90;;;;;;5030090;28;20045;-72
2023/09/26 01:45:40;;;;;;;4.50;1.40;;;19.40;99.90;;;;;;5031666;28;20025;-73
2023/09/26 01:48:09;;;;;;;8.05;1.50;;;19.40;99.90;;;;;;5031306;28;20128;-74
2023/09/26 01:50:35;;;;;;;7.45;1.67;;;19.30;99.90;;;;;;5031797;28;20128;-73
2023/09/26 01:53:03;;;;;;;7.00;1.30;;;19.40;99.90;;;;;;5031875;28;20303;-73
2023/09/26 01:55:29;;;;;;;4.38;1.58;;;19.30;99.90;;;;;;5031238;28;20037;-74
2023/09/26 01:57:56;;;;;;;9.20;1.67;;;19.30;99.90;;;;;;5031375;28;20029;-73
2023/09/26 02:00:22;;;;;;;;;;;19.30;99.90;;;;;;5031811;28;20021;-74
2023/09/26 02:02:51;;;;;;;3.65;1.40;;;19.30;99.90;;;;;;5031288;28;20361;-72
2023/09/26 02:05:22;;;;;;;4.70;1.70;;;19.40;99.90;;;;;;5031360;28;20043;-73
2023/09/26 02:07:49;;;;;;;4.38;1.55;;;19.30;99.90;;;;;;5031174;28;20108;-72
2023/09/26 02:10:16;;;;;;;6.68;1.70;;;19.30;99.90;;;;;;5031018;28;20021;-73
2023/09/26 02:12:47;;;;;;;5.50;1.75;;;19.30;99.90;;;;;;5031628;28;20036;-73
2023/09/26 02:15:14;;;;;;;7.82;1.70;;;19.30;99.90;;;;;;5031565;28;20022;-73
2023/09/26 02:17:41;;;;;;;4.75;1.75;;;19.20;99.90;;;;;;5029698;28;20366;-73
2023/09/26 02:20:12;;;;;;;6.70;1.60;;;19.30;99.90;;;;;;5031542;28;20025;-74
2023/09/26 02:22:47;;;;;;;3.75;1.60;;;19.20;99.90;;;;;;5031454;28;20091;-74
2023/09/26 02:25:15;;;;;;;6.53;1.98;;;19.10;99.90;;;;;;5029629;28;20029;-73
2023/09/26 02:27:43;;;;;;;8.10;2.00;;;19.20;99.90;;;;;;5030969;28;20026;-73
2023/09/26 02:30:11;;;;;;;5.65;2.00;;;19.20;99.90;;;;;;5031605;28;20025;-73
2023/09/26 02:32:38;;;;;;;5.78;2.20;;;19.20;99.90;;;;;;5034878;28;20377;-73
2023/09/26 02:35:07;;;;;;;6.18;2.00;;;19.20;99.90;;;;;;5034668;28;20030;-73
2023/09/26 02:37:33;;;;;;;3.10;1.75;;;19.20;99.90;;;;;;5033445;28;20029;-73
2023/09/26 02:40:00;;;;;;;8.35;2.10;;;19.30;99.90;;;;;;5034443;28;20017;-73
2023/09/26 02:42:27;;;;;;;5.35;1.70;;;19.20;99.90;;;;;;5034477;28;20026;-72
2023/09/26 02:44:53;;;;;;;4.03;2.00;;;19.20;99.90;;;;;;5034288;28;20116;-72
2023/09/26 02:47:19;;;;;;;12.52;2.10;;;19.30;99.90;;;;;;5034192;28;20041;-72
2023/09/26 02:49:45;;;;;;;5.85;2.00;;;19.40;99.90;;;;;;5034603;28;20049;-72
2023/09/26 02:52:11;;;;;;;5.90;2.17;;;19.40;99.90;;;;;;5034217;28;20087;-72
2023/09/26 02:54:37;;;;;;;4.88;1.88;;;19.40;99.90;;;;;;5034059;28;20083;-73
2023/09/26 02:57:04;;;;;;;11.52;3.00;;;19.50;99.90;;;;;;5033252;28;20119;-72
2023/09/26 02:59:30;;;;;;;6.97;1.75;;;19.40;99.90;;;;;;5034962;28;20021;-72
2023/09/26 03:01:56;;;;;;;6.13;2.05;;;19.50;99.90;;;;;;5034542;28;20091;-73
2023/09/26 03:04:23;;;;;;;6.70;1.92;;;19.50;99.90;;;;;;5034689;28;20102;-73
2023/09/26 03:06:49;;;;;;;6.68;1.98;;;19.50;99.90;;;;;;5034800;28;20036;-73
2023/09/26 03:09:15;;;;;;;6.10;2.03;;;19.50;99.90;;;;;;5034824;28;20067;-72
2023/09/26 03:11:45;;;;;;;6.43;2.13;;;19.50;99.90;;;;;;5034662;28;20074;-73
2023/09/26 03:14:12;;;;;;;4.60;1.85;;;19.40;99.90;;;;;;5034898;28;20029;-74
2023/09/26 03:16:38;;;;;;;4.38;1.80;;;19.50;99.90;;;;;;5034679;28;20032;-73
2023/09/26 03:19:06;;;;;;;6.55;1.70;;;19.40;99.90;;;;;;5034605;28;20037;-74
2023/09/26 03:21:32;;;;;;;5.43;1.77;;;19.40;99.90;;;;;;5034532;28;20032;-75
2023/09/26 03:23:58;;;;;;;5.20;1.50;;;19.30;99.90;;;;;;5034662;28;20022;-74
2023/09/26 03:26:24;;;;;;;4.70;1.80;;;19.30;99.90;;;;;;5035962;28;20148;-73
2023/09/26 03:28:50;;;;;;;5.25;1.70;;;19.30;99.90;;;;;;5035924;28;20033;-74
2023/09/26 03:31:16;;;;;;;7.57;1.77;;;19.30;99.90;;;;;;5035449;28;20017;-75
2023/09/26 03:33:43;;;;;;;4.50;1.80;;;19.30;99.90;;;;;;5035888;28;20035;-74
2023/09/26 03:36:09;;;;;;;5.53;1.80;;;19.40;99.90;;;;;;5035215;28;20029;-73
2023/09/26 03:38:35;;;;;;;4.82;1.75;;;19.40;99.90;;;;;;5034019;28;20120;-75
2023/09/26 03:41:03;;;;;;;5.50;1.92;;;19.40;99.90;;;;;;5034741;28;20067;-74
2023/09/26 03:43:30;;;;;;;5.45;2.05;;;19.50;99.90;;;;;;5035194;28;20025;-75
2023/09/26 03:46:07;;;;;;;4.47;1.60;;;19.50;99.90;;;;;;5035691;28;20033;-73
2023/09/26 03:48:34;;;;;;;8.43;1.90;;;19.50;99.90;;;;;;5035060;28;20050;-73
2023/09/26 03:51:11;;;;;;;5.00;1.60;;;19.50;99.90;;;;;;5034998;28;20478;-73
2023/09/26 03:53:38;;;;;;;6.85;2.10;;;19.40;99.90;;;;;;5035485;28;20029;-73
2023/09/26 03:56:04;;;;;;;8.77;1.70;;;19.30;99.90;;;;;;5034782;28;20039;-74
2023/09/26 03:58:32;;;;;;;13.63;1.70;;;19.20;99.90;;;;;;5034859;28;20021;-73
2023/09/26 04:01:12;;;;;;;5.43;1.70;;;19.20;99.90;;;;;;5034403;28;20095;-73
2023/09/26 04:03:43;;;;;;;5.47;2.03;;;19.10;99.90;;;;;;5034262;28;20059;-75
2023/09/26 04:06:09;;;;;;;8.48;1.90;;;19.10;99.90;;;;;;5034459;28;20121;-74
2023/09/26 04:08:36;;;;;;;6.32;1.73;;;19.20;99.90;;;;;;5034060;28;20044;-74
2023/09/26 04:11:03;;;;;;;7.05;1.83;;;19.10;99.90;;;;;;5033808;28;20024;-73
2023/09/26 04:13:29;;;;;;;6.25;2.00;;;19.10;99.90;;;;;;5033831;28;20434;-73
2023/09/26 04:15:55;;;;;;;4.75;1.52;;;19.10;99.90;;;;;;5034218;28;20450;-73
2023/09/26 04:18:22;;;;;;;6.65;1.70;;;18.90;99.90;;;;;;5034531;28;20030;-73
2023/09/26 04:20:50;;;;;;;4.35;1.50;;;18.90;99.90;;;;;;5034612;28;20096;-74
2023/09/26 04:23:17;;;;;;;3.78;1.60;;;18.80;99.90;;;;;;5034532;28;20041;-73
2023/09/26 04:25:44;;;;;;;7.70;1.70;;;18.80;99.90;;;;;;5033840;28;20497;-73
2023/09/26 04:28:10;;;;;;;6.35;1.98;;;18.70;99.90;;;;;;5033779;28;20482;-73
2023/09/26 04:30:39;;;;;;;7.60;1.90;;;18.70;99.90;;;;;;5033860;28;20021;-73
2023/09/26 04:33:08;;;;;;;5.70;2.05;;;18.80;99.90;;;;;;5032409;28;20037;-74
2023/09/26 04:35:34;;;;;;;3.97;1.85;;;18.90;99.90;;;;;;5034005;28;20031;-73
2023/09/26 04:38:00;;;;;;;;;;;19.00;99.90;;;;;;5034034;28;20100;-73
2023/09/26 04:40:26;;;;;;;4.30;1.80;;;19.10;99.90;;;;;;5033697;28;19944;-73
2023/09/26 04:42:53;;;;;;;5.32;1.80;;;19.10;99.90;;;;;;5034040;28;20099;-75
2023/09/26 04:45:19;;;;;;;6.07;1.92;;;19.20;99.90;;;;;;5033578;28;20028;-74
2023/09/26 04:47:45;;;;;;;4.65;1.67;;;19.20;99.90;;;;;;5031894;28;20073;-74
2023/09/26 04:50:11;;;;;;;4.68;1.92;;;19.20;99.90;;;;;;5033950;28;20577;-73
2023/09/26 04:52:37;;;;;;;6.93;2.13;;;19.30;99.90;;;;;;5032955;28;20072;-73
2023/09/26 04:55:05;;;;;;;4.07;1.92;;;19.30;99.90;;;;;;5032928;28;20029;-73
2023/09/26 04:57:31;;;;;;;6.00;2.20;;;19.30;99.90;;;;;;5033479;28;20025;-73
2023/09/26 04:59:57;;;;;;;5.43;2.10;;;19.30;99.90;;;;;;5033726;28;20032;-73
2023/09/26 05:02:23;;;;;;;6.72;2.10;;;19.40;99.90;;;;;;5033309;28;20041;-75
2023/09/26 05:04:49;;;;;;;9.40;1.92;;;19.40;99.90;;;;;;5033587;28;20079;-74
2023/09/26 05:07:16;;;;;;;4.70;1.67;;;19.40;99.90;;;;;;5032992;28;20036;-74
2023/09/26 05:09:42;;;;;;;6.15;2.00;;;19.40;99.90;;;;;;5033313;28;20414;-73
2023/09/26 05:12:08;;;;;;;6.90;1.92;;;19.50;99.90;;;;;;5032842;28;20040;-74
2023/09/26 05:14:34;;;;;;;5.85;1.70;;;19.50;99.90;;;;;;5031263;28;20208;-73
2023/09/26 05:17:00;;;;;;;5.15;1.52;;;19.50;99.90;;;;;;5033296;28;20036;-74
2023/09/26 05:19:27;;;;;;;4.65;1.83;;;19.50;99.90;;;;;;5033020;28;20060;-74
2023/09/26 05:21:53;;;;;;;6.50;1.80;;;19.50;99.90;;;;;;5033385;28;20493;-73
2023/09/26 05:24:22;;;;;;;5.63;1.83;;;19.40;99.90;;;;;;5032975;28;20044;-73
2023/09/26 05:26:49;;;;;;;7.93;2.00;;;19.50;99.90;;;;;;5032393;28;20100;-74
2023/09/26 05:29:15;;;;;;;4.72;1.77;;;19.50;99.90;;;;;;5031994;28;20025;-74
2023/09/26 05:31:41;;;;;;;6.40;1.67;;;19.50;99.90;;;;;;5033063;28;20025;-75
2023/09/26 05:34:07;;;;;;;4.18;1.58;;;19.50;99.90;;;;;;5032550;28;20109;-73
2023/09/26 05:36:34;;;;;;;9.27;2.00;;;19.60;99.90;;;;;;5032608;28;20021;-73
2023/09/26 05:39:00;;;;;;;4.63;1.70;;;20.00;99.90;;;;;;5024157;28;20028;-73
2023/09/26 05:41:26;;;;;;;4.82;1.63;;;20.80;99.90;;;;;;5016630;28;20105;-73
2023/09/26 05:43:52;;;;;;;5.65;1.40;;;21.60;99.90;;;;;;5012738;28;20413;-74
2023/09/26 05:46:19;;;;;;;4.20;1.45;;;22.30;99.90;;;;;;5012191;28;20545;-73
2023/09/26 05:48:45;;;;;;;3.42;1.30;;;23.20;99.90;;;;;;5012115;28;20057;-74
2023/09/26 05:51:11;;;;;;;8.48;1.55;;;23.90;99.90;;;;;;5011611;28;20091;-74
2023/09/26 05:53:37;;;;;;;5.70;1.17;;;24.90;99.90;;;;;;5010426;28;20037;-75
2023/09/26 05:56:03;;;;;;;6.13;1.20;;;25.70;99.90;;;;;;5011212;28;20132;-73
2023/09/26 05:58:30;;;;;;;4.28;1.30;;;26.40;99.90;;;;;;5011059;28;20172;-74
2023/09/26 06:00:59;;;;;;;;;;;26.60;99.90;;;;;;5012285;28;20028;-74
2023/09/26 06:03:26;;;;;;;7.22;1.40;;;26.70;99.90;;;;;;5010882;28;20043;-74
2023/09/26 06:05:52;;;;;;;3.97;1.17;;;27.30;99.90;;;;;;5013677;28;20496;-74
2023/09/26 06:08:18;;;;;;;7.28;1.30;;;26.90;99.90;;;;;;5032667;28;20030;-74
2023/09/26 06:10:51;;;;;;;3.95;1.35;;;27.00;99.90;;;;;;5034596;28;20036;-73
2023/09/26 06:13:17;;;;;;;5.13;1.10;;;27.30;99.90;;;;;;5035068;28;20057;-74
2023/09/26 06:15:43;;;;;;;5.38;1.23;;;27.90;99.90;;;;;;5034825;28;20036;-74
2023/09/26 06:18:09;;;;;;;6.38;1.20;;;28.30;99.90;;;;;;5035244;28;20028;-74
2023/09/26 06:20:38;;;;;;;;;;;28.00;99.90;;;;;;5035758;28;20065;-73
2023/09/26 06:23:05;;;;;;;8.88;1.20;;;27.80;99.90;;;;;;5033939;28;19975;-75
2023/09/26 06:25:31;;;;;;;10.15;1.42;;;28.00;99.90;;;;;;5034927;28;20378;-72
2023/09/26 06:27:57;;;;;;;;;;;28.20;99.90;;;;;;5034144;28;20026;-73
2023/09/26 06:30:23;;;;;;;4.72;1.20;;;27.50;99.90;;;;;;5035535;28;19959;-75
2023/09/26 06:32:49;;;;;;;3.35;1.05;;;27.70;99.90;;;;;;5035480;28;20021;-74
2023/09/26 06:35:15;;;;;;;3.60;1.10;;;27.10;99.90;;;;;;5035428;28;20061;-73
2023/09/26 06:37:42;;;;;;;7.68;1.17;;;26.90;99.90;;;;;;5034962;28;20128;-74
2023/09/26 06:40:08;;;;;;;6.05;1.10;;;26.20;99.90;;;;;;5033066;28;20123;-73
2023/09/26 06:42:35;;;;;;;6.00;1.40;;;25.20;99.90;;;;;;5034415;28;20041;-73
2023/09/26 06:45:01;;;;;;;3.97;1.23;;;24.70;99.90;;;;;;5035011;28;20485;-74
2023/09/26 06:47:27;;;;;;;;;;;25.50;99.90;;;;;;5034972;28;20088;-74
2023/09/26 06:49:56;;;;;;;;;;;26.60;99.90;;;;;;5035387;28;19964;-73
2023/09/26 06:52:22;;;;;;;3.53;1.10;;;27.40;99.90;;;;;;5034732;28;20330;-74
2023/09/26 06:54:50;;;;;;;;;;;27.50;99.90;;;;;;5034870;28;20032;-74
2023/09/26 06:57:26;;;;;;;4.78;1.30;;;27.00;99.90;;;;;;5033253;28;19999;-76
2023/09/26 06:59:52;;;;;;;7.60;1.50;;;26.00;99.90;;;;;;5033178;28;20053;-74
2023/09/26 07:02:19;;;;;;;;;;;25.20;99.90;;;;;;5033314;28;20033;-74
2023/09/26 07:04:46;;;;;;;9.05;1.85;;;24.40;99.90;;;;;;5034316;28;20003;-75
2023/09/26 07:07:12;;;;;;;8.07;1.50;;;24.00;99.90;;;;;;5033320;28;20030;-74
2023/09/26 07:09:39;;;;;;;7.57;1.60;;;23.60;99.90;;;;;;5034513;28;20030;-74
2023/09/26 07:12:06;;;;;;;7.38;1.50;;;23.30;99.90;;;;;;5034485;28;20104;-75
2023/09/26 07:14:35;;;;;;;5.90;1.50;;;23.30;99.90;;;;;;5034371;28;20022;-74
2023/09/26 07:17:04;;;;;;;6.53;1.60;;;23.20;99.90;;;;;;5033671;28;20091;-75
2023/09/26 07:19:34;;;;;;;5.18;1.80;;;23.30;99.90;;;;;;5034464;28;20021;-75
2023/09/26 07:22:00;;;;;;;9.45;1.77;;;23.20;99.90;;;;;;5034057;28;20192;-75
2023/09/26 07:24:26;;;;;;;8.02;1.85;;;23.10;99.90;;;;;;5034359;28;20022;-73
2023/09/26 07:26:53;;;;;;;7.35;1.73;;;23.00;99.90;;;;;;5034596;28;20105;-75
2023/09/26 07:29:19;;;;;;;6.10;1.60;;;22.90;99.90;;;;;;5034519;28;20022;-75
2023/09/26 07:31:45;;;;;;;;;;;22.90;99.90;;;;;;5034233;28;20076;-73
2023/09/26 07:34:11;;;;;;;;;;;22.90;99.90;;;;;;5034624;28;20359;-75
2023/09/26 07:36:37;;;;;;;4.53;1.50;;;23.40;99.90;;;;;;5034255;28;20357;-74
2023/09/26 07:39:04;;;;;;;4.45;1.15;;;23.80;99.90;;;;;;5033914;28;20030;-74
2023/09/26 07:41:30;;;;;;;10.85;1.85;;;24.20;99.90;;;;;;5033579;28;20064;-73
2023/09/26 07:43:57;;;;;;;6.03;1.52;;;24.60;99.90;;;;;;5032291;28;20029;-73
2023/09/26 07:46:23;;;;;;;3.78;1.38;;;25.20;99.90;;;;;;5033892;28;20022;-74
2023/09/26 07:48:49;;;;;;;5.88;1.30;;;25.70;99.90;;;;;;5031552;28;20447;-74
2023/09/26 07:51:16;;;;;;;4.47;1.35;;;25.90;99.90;;;;;;5031893;28;20025;-73
2023/09/26 07:53:42;;;;;;;5.00;1.45;;;26.40;99.90;;;;;;5032945;28;20037;-73
2023/09/26 07:56:10;;;;;;;6.22;1.30;;;26.50;99.90;;;;;;5032989;28;20536;-73
2023/09/26 07:58:36;;;;;;;5.28;1.58;;;26.70;99.90;;;;;;5031304;28;20033;-74
2023/09/26 08:01:06;;;;;;;5.60;1.35;;;27.20;99.90;;;;;;5031590;28;20026;-75
2023/09/26 08:03:33;;;;;;;5.57;1.38;;;27.30;99.90;;;;;;5033042;28;20056;-76
2023/09/26 08:06:04;;;;;;;8.70;1.40;;;27.70;99.90;;;;;;5032262;28;20068;-73
2023/09/26 08:08:30;;;;;;;9.50;1.45;;;28.20;99.90;;;;;;5032558;28;20033;-75
2023/09/26 08:11:05;;;;;;;5.43;2.08;;;28.60;99.90;;;;;;5030697;28;20492;-74
2023/09/26 08:13:32;;;;;;;8.25;2.10;;;28.60;99.90;;;;;;5032765;28;20172;-75
2023/09/26 08:15:58;;;;;;;5.68;1.83;;;28.80;99.90;;;;;;5032868;28;20032;-74
2023/09/26 08:18:24;;;;;;;6.63;1.88;;;28.70;99.90;;;;;;5033037;28;20025;-74
2023/09/26 08:20:55;;;;;;;4.97;1.50;;;27.90;99.90;;;;;;5032931;28;20110;-75
2023/09/26 08:23:28;;;;;;;5.10;1.60;;;28.30;99.90;;;;;;5033011;28;20513;-74
2023/09/26 08:26:00;;;;;;;5.47;2.08;;;28.50;99.90;;;;;;5032425;28;20347;-74
2023/09/26 08:28:26;;;;;;;8.02;2.50;;;28.30;99.90;;;;;;5031723;28;20045;-74
2023/09/26 08:31:02;;;;;;;7.78;2.53;;;28.30;99.90;;;;;;5033290;28;20037;-76
2023/09/26 08:33:29;;;;;;;19.15;4.40;;;27.90;99.90;;;;;;5032872;28;20024;-75
2023/09/26 08:35:57;;;;;;;10.30;2.53;;;27.30;99.90;;;;;;5032529;28;20139;-71
2023/09/26 08:38:23;;;;;;;6.68;2.53;;;26.90;99.90;;;;;;5032703;28;20079;-74
2023/09/26 08:40:50;;;;;;;;;;;26.60;99.90;;;;;;5032759;28;20446;-75
2023/09/26 08:43:22;;;;;;;8.27;2.45;;;26.40;99.90;;;;;;5032594;28;19924;-74
2023/09/26 08:45:48;;;;;;;8.38;2.10;;;25.80;99.90;;;;;;5032554;28;20022;-74
2023/09/26 08:48:16;;;;;;;4.40;1.80;;;25.50;99.90;;;;;;5030495;28;20053;-74
2023/09/26 08:50:42;;;;;;;7.07;2.13;;;25.00;99.90;;;;;;5031980;28;20051;-74
2023/09/26 08:53:08;;;;;;;7.30;2.25;;;24.80;99.90;;;;;;5032350;28;20040;-75
2023/09/26 08:55:37;;;;;;;5.38;2.00;;;24.60;99.90;;;;;;5032055;28;20029;-74
2023/09/26 08:58:03;;;;;;;6.22;2.05;;;24.40;99.90;;;;;;5032419;28;20071;-74
2023/09/26 09:00:30;;;;;;;8.02;2.17;;;24.10;99.90;;;;;;5031911;28;20506;-74
2023/09/26 09:02:56;;;;;;;5.97;2.13;;;24.00;99.90;;;;;;5030368;28;20041;-75
2023/09/26 09:05:23;;;;;;;9.25;2.45;;;23.70;99.90;;;;;;5031896;28;20130;-75
2023/09/26 09:07:49;;;;;;;5.43;2.40;;;23.70;99.90;;;;;;5031642;28;20022;-74
2023/09/26 09:10:19;;;;;;;7.43;2.45;;;23.80;99.90;;;;;;5031521;28;20036;-73
2023/09/26 09:12:50;;;;;;;4.38;2.22;;;24.00;99.90;;;;;;5031885;28;20028;-74
2023/09/26 09:15:16;;;;;;;7.30;2.67;;;23.90;99.90;;;;;;5031808;28;20021;-73
2023/09/26 09:17:43;;;;;;;7.28;2.35;;;24.10;99.90;;;;;;5031789;28;20033;-74
2023/09/26 09:20:10;;;;;;;4.43;2.00;;;24.30;99.90;;;;;;5030524;28;20052;-74
2023/09/26 09:22:36;;;;;;;7.28;2.60;;;24.60;99.90;;;;;;5031550;28;20033;-73
2023/09/26 09:25:03;;;;;;;4.88;2.17;;;24.30;99.90;;;;;;5031717;28;20466;-74
2023/09/26 09:27:30;;;;;;;6.63;1.83;;;24.20;99.90;;;;;;5032036;28;20026;-75
2023/09/26 09:30:12;;;;;;;5.53;2.10;;;24.20;99.90;;;;;;5031645;28;20026;-73
2023/09/26 09:32:41;;;;;;;7.53;2.40;;;24.10;99.90;;;;;;5031598;28;20083;-73
2023/09/26 09:35:10;;;;;;;6.60;2.35;;;24.00;99.90;;;;;;5031439;28;20151;-74
2023/09/26 09:37:36;;;;;;;4.85;2.10;;;24.00;99.90;;;;;;5031187;28;20064;-75
2023/09/26 09:40:05;;;;;;;7.10;2.50;;;23.70;99.90;;;;;;5029199;28;20018;-72
2023/09/26 09:42:31;;;;;;;8.35;2.50;;;23.70;99.90;;;;;;5031318;28;20061;-74
2023/09/26 09:44:57;;;;;;;5.78;2.33;;;23.70;99.90;;;;;;5031483;28;20087;-74
2023/09/26 09:47:24;;;;;;;5.25;2.40;;;23.20;99.90;;;;;;5029826;28;20052;-74
2023/09/26 09:49:52;;;;;;;11.38;2.67;;;23.00;99.90;;;;;;5031019;28;20065;-73
2023/09/26 09:52:19;;;;;;;5.22;2.63;;;22.90;99.90;;;;;;5031064;28;20175;-74
2023/09/26 09:54:46;;;;;;;8.88;2.80;;;22.90;99.90;;;;;;5029480;28;20041;-75
2023/09/26 09:57:17;;;;;;;9.25;2.75;;;22.80;99.90;;;;;;5031014;28;20079;-74
2023/09/26 09:59:47;;;;;;;8.57;2.75;;;22.60;99.90;;;;;;5029402;28;20053;-73
2023/09/26 10:02:16;;;;;;;5.85;2.88;;;22.40;99.90;;;;;;5029648;28;20055;-73
2023/09/26 10:04:55;;;;;;;9.98;2.60;;;22.30;99.90;;;;;;5030958;28;20036;-74
2023/09/26 10:07:27;;;;;;;7.05;2.85;;;22.10;99.90;;;;;;5030820;28;20120;-74
2023/09/26 10:09:55;;;;;;;6.55;2.50;;;21.90;99.90;;;;;;5030762;28;20493;-74
2023/09/26 10:12:24;;;;;;;6.43;3.17;;;22.00;99.90;;;;;;5031014;28;20025;-73
2023/09/26 10:14:54;;;;;;;5.93;2.70;;;22.10;99.90;;;;;;5031152;28;20028;-74
2023/09/26 10:17:21;;;;;;;6.75;2.70;;;22.20;99.90;;;;;;5031316;28;20059;-72
2023/09/26 10:19:47;;;;;;;6.18;3.15;;;22.40;99.90;;;;;;5030787;28;20470;-74
2023/09/26 10:22:18;;;;;;;6.50;2.38;;;22.50;99.90;;;;;;5030899;28;20033;-73
2023/09/26 10:24:45;;;;;;;11.20;3.00;;;22.60;99.90;;;;;;5031154;28;20025;-74
2023/09/26 10:27:11;;;;;;;8.60;2.42;;;22.70;99.90;;;;;;5031028;28;20369;-73
2023/09/26 10:29:38;;;;;;;9.98;2.80;;;22.80;99.90;;;;;;5031003;28;20047;-73
2023/09/26 10:32:07;;;;;;;8.57;2.90;;;22.60;99.90;;;;;;5030817;28;20021;-74
2023/09/26 10:34:35;;;;;;;7.10;2.50;;;22.70;99.90;;;;;;5030812;28;20509;-74
2023/09/26 10:37:03;;;;;;;4.80;2.03;;;22.40;99.90;;;;;;5030961;28;20041;-72
2023/09/26 10:39:39;;;;;;;4.63;2.00;;;22.30;99.90;;;;;;5030775;28;20034;-73
2023/09/26 10:42:13;;;;;;;4.97;1.63;;;22.00;99.90;;;;;;5030840;28;20378;-72
2023/09/26 10:44:43;;;;;;;7.70;1.88;;;22.10;99.90;;;;;;5031189;28;20061;-73
2023/09/26 10:47:12;;;;;;;4.95;2.08;;;21.90;99.90;;;;;;5030586;28;20386;-73
2023/09/26 10:49:39;;;;;;;3.30;1.60;;;21.70;99.90;;;;;;5030337;28;20033;-73
2023/09/26 10:52:10;;;;;;;4.10;1.63;;;21.90;99.90;;;;;;5030765;28;20033;-73
2023/09/26 10:54:39;;;;;;;6.53;2.00;;;21.60;99.90;;;;;;5034087;28;20021;-74
2023/09/26 10:57:06;;;;;;;5.65;1.85;;;21.50;99.90;;;;;;5032803;28;20125;-73
2023/09/26 10:59:32;;;;;;;;;;;21.60;99.90;;;;;;5033058;28;20345;-74
2023/09/26 11:02:01;;;;;;;7.53;2.30;;;21.50;99.90;;;;;;5033988;28;20001;-74
2023/09/26 11:04:30;;;;;;;5.03;1.75;;;21.70;99.90;;;;;;5032148;28;20109;-74
2023/09/26 11:06:58;;;;;;;6.00;2.15;;;21.80;99.90;;;;;;5033949;28;20480;-73
2023/09/26 11:09:25;;;;;;;5.05;2.03;;;22.00;99.90;;;;;;5031969;28;20457;-73
2023/09/26 11:11:55;;;;;;;5.80;2.20;;;22.10;99.90;;;;;;5033521;28;20159;-73
2023/09/26 11:14:21;;;;;;;4.75;1.73;;;22.10;99.90;;;;;;5034002;28;20116;-73
2023/09/26 11:16:48;;;;;;;6.07;3.08;;;22.30;99.90;;;;;;5033778;28;20100;-73
2023/09/26 11:19:14;;;;;;;4.70;2.80;;;22.50;99.90;;;;;;5034399;28;20029;-73
2023/09/26 11:21:40;;;;;;;5.05;1.80;;;22.40;99.90;;;;;;5033995;28;20050;-74
2023/09/26 11:24:31;;;;;;;9.23;1.80;;;22.60;99.90;;;;;;5034159;28;20040;-73
2023/09/26 11:26:59;;;;;;;5.43;1.95;;;22.50;99.90;;;;;;5033717;28;20088;-73
2023/09/26 11:29:25;;;;;;;8.10;1.80;;;22.70;99.90;;;;;;5033787;28;20496;-73
2023/09/26 11:31:56;;;;;;;4.72;1.80;;;22.70;99.90;;;;;;5033634;28;20037;-75
2023/09/26 11:34:24;;;;;;;6.10;1.58;;;22.60;99.90;;;;;;5033804;28;20057;-75
2023/09/26 11:36:51;;;;;;;3.95;1.60;;;22.70;99.90;;;;;;5033605;28;20045;-73
2023/09/26 11:39:22;;;;;;;3.83;1.70;;;22.70;99.90;;;;;;5032308;28;20382;-73
2023/09/26 11:42:17;;;;;;;5.05;2.20;;;22.80;99.90;;;;;;5033358;28;20485;-74
2023/09/26 11:44:52;;;;;;;6.68;1.90;;;23.10;99.90;;;;;;5034111;28;20470;-74
2023/09/26 11:47:20;;;;;;;5.70;1.92;;;23.50;99.90;;;;;;5033483;28;20025;-74
2023/09/26 11:49:47;;;;;;;4.82;1.80;;;23.70;99.90;;;;;;5033458;28;20033;-74
2023/09/26 11:52:14;;;;;;;3.88;1.80;;;24.00;99.90;;;;;;5033896;28;20029;-74
2023/09/26 11:54:40;;;;;;;5.15;1.55;;;24.10;99.90;;;;;;5034190;28;20022;-72
2023/09/26 11:57:06;;;;;;;8.88;3.03;;;24.20;99.90;;;;;;5033634;28;20060;-73
2023/09/26 11:59:32;;;;;;;7.55;2.00;;;24.50;99.90;;;;;;5033874;28;20118;-74
2023/09/26 12:02:00;;;;;;;6.57;1.92;;;24.70;99.90;;;;;;5033346;28;20029;-74
2023/09/26 12:04:27;;;;;;;6.07;2.17;;;24.80;99.90;;;;;;5033855;28;20116;-74
2023/09/26 12:06:53;;;;;;;5.97;1.70;;;24.80;99.90;;;;;;5033998;28;20014;-72
2023/09/26 12:09:20;;;;;;;8.70;1.60;;;25.00;99.90;;;;;;5032617;28;20029;-73
2023/09/26 12:11:48;;;;;;;6.88;1.98;;;24.70;99.90;;;;;;5032346;28;20030;-73
2023/09/26 12:14:16;;;;;;;8.52;2.03;;;24.40;99.90;;;;;;5034175;28;20061;-73
2023/09/26 12:16:43;;;;;;;5.15;1.80;;;24.60;99.90;;;;;;5033593;28;20042;-73
2023/09/26 12:19:10;;;;;;;7.22;1.67;;;24.80;99.90;;;;;;5033752;28;20092;-74
2023/09/26 12:21:37;;;;;;;7.35;2.30;;;25.00;99.90;;;;;;5033950;28;20087;-73
2023/09/26 12:24:03;;;;;;;4.45;1.67;;;25.00;99.90;;;;;;5033933;28;20095;-73
2023/09/26 12:26:29;;;;;;;7.10;2.38;;;25.30;99.90;;;;;;5032336;28;20087;-73
2023/09/26 12:28:55;;;;;;;7.15;1.98;;;25.70;99.90;;;;;;5034298;28;20114;-73
2023/09/26 12:31:22;;;;;;;6.03;1.80;;;25.80;99.90;;;;;;5033743;28;20026;-73
2023/09/26 12:33:48;;;;;;;9.35;1.75;;;25.20;99.90;;;;;;5034108;28;20029;-73
2023/09/26 12:36:14;;;;;;;7.00;1.65;;;24.90;99.90;;;;;;5032249;28;20469;-73
2023/09/26 12:38:41;;;;;;;7.45;2.60;;;24.70;99.90;;;;;;5033723;28;20029;-73
2023/09/26 12:41:07;;;;;;;;;;;24.80;99.90;;;;;;5034394;28;20028;-74
2023/09/26 12:43:33;;;;;;;;;;;24.60;99.90;;;;;;5034152;28;19919;-73
2023/09/26 12:45:59;;;;;;;6.97;2.20;;;24.50;99.90;;;;;;5033766;28;19905;-73
2023/09/26 12:48:25;;;;;;;7.68;1.73;;;24.80;99.90;;;;;;5033132;28;20042;-73
2023/09/26 12:50:51;;;;;;;9.65;2.50;;;24.90;99.90;;;;;;5032908;28;20030;-73